createdAt,value
2023-06-17T00:01:28.894Z,16.25
2023-06-17T00:03:55.598Z,16.27
2023-06-17T00:06:22.136Z,16.31
2023-06-17T00:08:49.627Z,16.36
2023-06-17T00:11:16.088Z,16.37
2023-06-17T00:13:42.646Z,16.40
2023-06-17T00:16:10.177Z,16.40
2023-06-17T00:18:37.218Z,16.41
2023-06-17T00:21:03.875Z,16.43
2023-06-17T00:23:30.403Z,16.49
2023-06-17T00:25:56.906Z,16.49
2023-06-17T00:28:23.373Z,16.43
2023-06-17T00:30:49.835Z,16.44
2023-06-17T00:33:16.637Z,16.45
2023-06-17T00:35:43.189Z,16.45
2023-06-17T00:38:09.822Z,16.54
2023-06-17T00:40:36.420Z,16.54
2023-06-17T00:43:02.934Z,16.52
2023-06-17T00:45:29.417Z,16.52
2023-06-17T00:47:56.257Z,16.54
2023-06-17T00:50:24.000Z,16.55
2023-06-17T00:52:53.420Z,16.57
2023-06-17T00:55:19.924Z,16.56
2023-06-17T00:57:48.476Z,16.51
2023-06-17T01:00:16.168Z,16.51
2023-06-17T01:02:45.668Z,16.50
2023-06-17T01:05:14.280Z,16.51
2023-06-17T01:07:47.443Z,16.51
2023-06-17T01:10:33.937Z,16.49
2023-06-17T01:13:01.894Z,16.51
2023-06-17T01:15:28.418Z,16.60
2023-06-17T01:17:56.180Z,16.54
2023-06-17T01:20:24.199Z,16.54
2023-06-17T01:22:53.386Z,16.53
2023-06-17T01:25:21.735Z,16.52
2023-06-17T01:27:55.375Z,16.54
2023-06-17T01:30:22.266Z,16.57
2023-06-17T01:33:10.682Z,16.55
2023-06-17T01:35:38.666Z,16.57
2023-06-17T01:38:25.813Z,16.48
2023-06-17T01:40:58.745Z,16.36
2023-06-17T01:43:26.707Z,16.45
2023-06-17T01:45:54.300Z,16.43
2023-06-17T01:48:20.789Z,16.43
2023-06-17T01:50:47.266Z,16.47
2023-06-17T01:53:13.702Z,16.44
2023-06-17T01:55:40.398Z,16.41
2023-06-17T01:58:06.863Z,16.45
2023-06-17T02:00:33.332Z,16.44
2023-06-17T02:02:59.877Z,16.45
2023-06-17T02:05:26.377Z,16.44
2023-06-17T02:07:53.618Z,16.48
2023-06-17T02:10:20.376Z,16.52
2023-06-17T02:12:47.113Z,16.57
2023-06-17T02:15:13.692Z,16.52
2023-06-17T02:17:40.212Z,16.54
2023-06-17T02:20:07.414Z,16.48
2023-06-17T02:22:34.053Z,16.44
2023-06-17T02:25:01.529Z,16.43
2023-06-17T02:27:28.066Z,16.45
2023-06-17T02:29:54.559Z,16.43
2023-06-17T02:32:21.379Z,16.44
2023-06-17T02:34:50.495Z,16.39
2023-06-17T02:37:16.988Z,16.39
2023-06-17T02:39:43.586Z,16.40
2023-06-17T02:42:10.295Z,16.40
2023-06-17T02:44:37.052Z,16.39
2023-06-17T02:47:03.982Z,16.32
2023-06-17T02:49:30.485Z,16.32
2023-06-17T02:51:56.957Z,16.33
2023-06-17T02:54:23.420Z,16.31
2023-06-17T02:56:49.892Z,16.37
2023-06-17T02:59:16.683Z,16.40
2023-06-17T03:01:44.294Z,16.43
2023-06-17T03:04:13.881Z,16.39
2023-06-17T03:06:42.137Z,16.40
2023-06-17T03:09:09.660Z,16.42
2023-06-17T03:11:36.910Z,16.43
2023-06-17T03:14:04.174Z,16.39
2023-06-17T03:16:32.790Z,16.35
2023-06-17T03:19:00.147Z,16.36
2023-06-17T03:21:30.725Z,16.37
2023-06-17T03:24:01.886Z,16.34
2023-06-17T03:26:28.824Z,16.35
2023-06-17T03:28:55.324Z,16.39
2023-06-17T03:31:22.823Z,16.34
2023-06-17T03:33:52.273Z,16.40
2023-06-17T03:36:19.459Z,16.44
2023-06-17T03:38:46.512Z,16.43
2023-06-17T03:41:13.094Z,16.44
2023-06-17T03:43:39.564Z,16.51
2023-06-17T03:46:06.024Z,16.49
2023-06-17T03:48:32.574Z,16.47
2023-06-17T03:50:59.030Z,16.42
2023-06-17T03:53:25.925Z,16.38
2023-06-17T03:55:52.391Z,16.33
2023-06-17T03:58:19.161Z,16.38
2023-06-17T04:00:46.019Z,16.37
2023-06-17T04:03:12.716Z,16.38
2023-06-17T04:05:40.504Z,16.36
2023-06-17T04:08:07.593Z,16.37
2023-06-17T04:10:34.130Z,16.41
2023-06-17T04:13:00.713Z,16.44
2023-06-17T04:15:27.174Z,16.43
2023-06-17T04:17:56.084Z,16.53
2023-06-17T04:20:26.623Z,16.57
2023-06-17T04:22:53.184Z,16.61
2023-06-17T04:25:22.017Z,16.59
2023-06-17T04:27:54.461Z,16.59
2023-06-17T04:30:21.430Z,16.57
2023-06-17T04:32:48.088Z,16.54
2023-06-17T04:35:14.592Z,16.51
2023-06-17T04:37:41.459Z,16.49
2023-06-17T04:40:11.775Z,16.60
2023-06-17T04:42:41.691Z,16.62
2023-06-17T04:45:17.457Z,16.61
2023-06-17T04:47:45.781Z,16.55
2023-06-17T04:50:13.713Z,16.60
2023-06-17T04:52:44.724Z,16.65
2023-06-17T04:55:12.883Z,16.70
2023-06-17T04:57:39.302Z,16.73
2023-06-17T05:00:06.722Z,16.76
2023-06-17T05:02:33.294Z,16.86
2023-06-17T05:04:59.719Z,16.85
2023-06-17T05:07:26.172Z,16.88
2023-06-17T05:09:52.616Z,16.92
2023-06-17T05:12:19.048Z,16.87
2023-06-17T05:14:45.528Z,16.87
2023-06-17T05:17:12.018Z,16.91
2023-06-17T05:20:04.516Z,16.90
2023-06-17T05:26:21.911Z,16.98
2023-06-17T05:36:26.819Z,16.95
2023-06-17T05:38:53.526Z,17.04
2023-06-17T05:41:20.109Z,17.09
2023-06-17T05:43:50.203Z,17.03
2023-06-17T05:46:17.042Z,16.98
2023-06-17T05:48:43.533Z,16.99
2023-06-17T05:51:09.972Z,17.06
2023-06-17T05:53:36.413Z,17.09
2023-06-17T05:56:02.894Z,17.10
2023-06-17T05:58:29.356Z,17.09
2023-06-17T06:00:55.881Z,17.10
2023-06-17T06:03:22.398Z,17.08
2023-06-17T06:05:48.887Z,17.13
2023-06-17T06:08:15.398Z,17.15
2023-06-17T06:10:41.869Z,17.17
2023-06-17T06:13:09.715Z,17.20
2023-06-17T06:15:36.184Z,17.20
2023-06-17T06:18:02.764Z,17.24
2023-06-17T06:20:30.040Z,17.24
2023-06-17T06:22:56.558Z,17.29
2023-06-17T06:25:23.021Z,17.31
2023-06-17T06:27:51.484Z,17.36
2023-06-17T06:30:18.054Z,17.47
2023-06-17T06:32:44.555Z,17.47
2023-06-17T06:35:11.274Z,17.48
2023-06-17T06:37:37.735Z,17.52
2023-06-17T06:40:06.486Z,17.60
2023-06-17T06:42:33.088Z,17.59
2023-06-17T06:44:59.588Z,17.61
2023-06-17T06:47:26.135Z,17.60
2023-06-17T06:49:52.688Z,17.66
2023-06-17T06:52:19.158Z,17.72
2023-06-17T06:55:00.727Z,17.71
2023-06-17T06:57:27.201Z,17.70
2023-06-17T06:59:53.631Z,17.85
2023-06-17T07:02:35.254Z,17.91
2023-06-17T07:05:02.477Z,17.95
2023-06-17T07:07:28.949Z,17.96
2023-06-17T07:09:55.429Z,17.93
2023-06-17T07:12:22.035Z,17.85
2023-06-17T07:14:48.509Z,17.95
2023-06-17T07:17:15.057Z,17.96
2023-06-17T07:19:41.504Z,17.97
2023-06-17T07:22:08.864Z,18.08
2023-06-17T07:24:35.463Z,18.16
2023-06-17T07:27:01.984Z,18.24
2023-06-17T07:29:28.478Z,18.28
2023-06-17T07:31:54.980Z,18.32
2023-06-17T07:34:21.458Z,18.39
2023-06-17T07:36:53.395Z,18.43
2023-06-17T07:39:21.194Z,18.50
2023-06-17T07:41:47.652Z,18.45
2023-06-17T07:44:14.088Z,18.52
2023-06-17T07:46:40.588Z,18.56
2023-06-17T07:49:07.067Z,18.51
2023-06-17T07:51:33.531Z,18.58
2023-06-17T07:53:59.976Z,18.62
2023-06-17T07:56:28.631Z,18.67
2023-06-17T07:58:55.124Z,18.67
2023-06-17T08:01:21.906Z,18.77
2023-06-17T08:03:48.460Z,18.77
2023-06-17T08:06:15.170Z,18.85
2023-06-17T08:08:42.219Z,18.94
2023-06-17T08:11:08.929Z,19.04
2023-06-17T08:13:35.384Z,19.09
2023-06-17T08:16:02.276Z,19.13
2023-06-17T08:18:28.752Z,19.11
2023-06-17T08:20:55.337Z,18.98
2023-06-17T08:23:21.791Z,19.04
2023-06-17T08:25:50.419Z,19.11
2023-06-17T08:28:16.863Z,19.18
2023-06-17T08:30:43.375Z,19.29
2023-06-17T08:33:09.864Z,19.38
2023-06-17T08:35:36.379Z,19.48
2023-06-17T08:38:02.962Z,19.63
2023-06-17T08:40:30.196Z,19.71
2023-06-17T08:43:03.967Z,19.78
2023-06-17T08:45:30.991Z,19.85
2023-06-17T08:47:58.734Z,19.82
2023-06-17T08:50:26.035Z,19.78
2023-06-17T08:52:55.090Z,19.75
2023-06-17T08:55:21.905Z,19.74
2023-06-17T08:57:51.982Z,19.75
2023-06-17T09:00:19.090Z,19.70
2023-06-17T09:02:46.919Z,19.75
2023-06-17T09:05:13.825Z,19.84
2023-06-17T09:07:41.012Z,19.87
2023-06-17T09:10:09.624Z,19.82
2023-06-17T09:12:39.975Z,19.82
2023-06-17T09:15:15.843Z,19.92
2023-06-17T09:17:43.755Z,19.93
2023-06-17T09:20:12.069Z,19.98
2023-06-17T09:22:43.563Z,20.05
2023-06-17T09:25:15.405Z,20.08
2023-06-17T09:28:15.189Z,20.30
2023-06-17T09:30:44.463Z,20.46
2023-06-17T09:33:19.138Z,20.50
2023-06-17T09:35:46.008Z,20.53
2023-06-17T09:38:16.574Z,20.57
2023-06-17T09:40:43.147Z,20.57
2023-06-17T09:43:26.605Z,20.59
2023-06-17T09:45:56.520Z,20.63
2023-06-17T09:48:25.820Z,20.54
2023-06-17T09:50:58.895Z,20.63
2023-06-17T09:53:30.234Z,20.67
2023-06-17T09:55:58.368Z,20.72
2023-06-17T09:58:30.242Z,20.76
2023-06-17T10:01:01.706Z,20.85
2023-06-17T10:03:28.698Z,20.86
2023-06-17T10:06:14.427Z,20.89
2023-06-17T10:08:43.375Z,20.96
2023-06-17T10:11:11.036Z,20.99
2023-06-17T10:13:38.090Z,21.11
2023-06-17T10:16:06.058Z,21.34
2023-06-17T10:18:34.657Z,21.60
2023-06-17T10:21:01.635Z,21.63
2023-06-17T10:23:28.830Z,21.62
2023-06-17T10:25:55.864Z,21.58
2023-06-17T10:28:22.496Z,21.54
2023-06-17T10:30:51.330Z,21.64
2023-06-17T10:33:26.946Z,21.80
2023-06-17T10:36:07.056Z,21.92
2023-06-17T10:38:35.275Z,22.06
2023-06-17T10:41:02.675Z,22.02
2023-06-17T10:43:36.914Z,22.04
2023-06-17T10:46:03.476Z,22.01
2023-06-17T10:48:31.590Z,22.05
2023-06-17T10:51:03.445Z,21.99
2023-06-17T10:53:33.304Z,21.99
2023-06-17T10:56:01.538Z,22.06
2023-06-17T10:58:32.666Z,22.00
2023-06-17T11:01:00.510Z,21.95
2023-06-17T11:03:27.490Z,22.05
2023-06-17T11:05:55.077Z,22.23
2023-06-17T11:08:21.606Z,22.36
2023-06-17T11:10:48.112Z,22.47
2023-06-17T11:13:14.666Z,22.62
2023-06-17T11:15:41.128Z,22.79
2023-06-17T11:18:09.166Z,22.91
2023-06-17T11:20:36.276Z,22.95
2023-06-17T11:23:06.164Z,23.00
2023-06-17T11:25:44.488Z,23.05
2023-06-17T11:28:12.770Z,23.20
2023-06-17T11:30:41.480Z,23.33
2023-06-17T11:33:09.219Z,23.44
2023-06-17T11:35:36.297Z,23.50
2023-06-17T11:38:03.346Z,23.53
2023-06-17T11:40:29.775Z,23.63
2023-06-17T11:42:58.496Z,23.83
2023-06-17T11:45:25.929Z,24.01
2023-06-17T11:47:52.424Z,24.22
2023-06-17T11:50:19.944Z,24.55
2023-06-17T11:52:57.739Z,24.83
2023-06-17T11:55:34.485Z,25.15
2023-06-17T11:58:02.708Z,25.64
2023-06-17T12:00:30.596Z,26.14
2023-06-17T12:03:00.323Z,26.71
2023-06-17T12:05:28.256Z,27.14
2023-06-17T12:07:57.906Z,27.72
2023-06-17T12:10:24.794Z,28.30
2023-06-17T12:12:51.878Z,28.80
2023-06-17T12:18:10.493Z,29.61
2023-06-17T12:20:40.536Z,30.15
2023-06-17T12:23:07.647Z,30.80
2023-06-17T12:25:35.284Z,31.29
2023-06-17T12:28:06.558Z,31.36
2023-06-17T12:30:34.709Z,31.08
2023-06-17T12:33:01.552Z,31.53
2023-06-17T12:35:28.460Z,31.56
2023-06-17T12:37:56.351Z,32.19
2023-06-17T12:40:22.929Z,32.32
2023-06-17T12:42:49.407Z,32.82
2023-06-17T12:45:16.145Z,32.81
2023-06-17T12:47:42.685Z,33.18
2023-06-17T12:50:10.251Z,33.29
2023-06-17T12:52:37.169Z,33.11
2023-06-17T12:55:06.072Z,33.19
2023-06-17T12:57:32.981Z,33.59
2023-06-17T13:00:01.132Z,33.73
2023-06-17T13:02:27.689Z,33.82
2023-06-17T13:04:55.031Z,33.90
2023-06-17T13:07:21.567Z,33.80
2023-06-17T13:09:48.008Z,33.15
2023-06-17T13:12:14.818Z,32.40
2023-06-17T13:14:41.306Z,32.19
2023-06-17T13:17:07.974Z,31.40
2023-06-17T13:19:34.599Z,30.65
2023-06-17T13:22:01.039Z,30.95
2023-06-17T13:24:27.552Z,31.64
2023-06-17T13:26:54.122Z,32.37
2023-06-17T13:29:22.424Z,32.97
2023-06-17T13:31:49.242Z,33.38
2023-06-17T13:34:15.790Z,33.43
2023-06-17T13:36:46.037Z,33.35
2023-06-17T13:39:12.882Z,33.50
2023-06-17T13:41:39.331Z,33.02
2023-06-17T13:44:06.889Z,32.34
2023-06-17T13:46:33.405Z,31.13
2023-06-17T13:49:00.201Z,30.36
2023-06-17T13:51:26.828Z,29.82
2023-06-17T13:53:53.320Z,29.68
2023-06-17T13:56:19.829Z,30.11
2023-06-17T13:58:46.302Z,31.08
2023-06-17T14:01:12.797Z,31.66
2023-06-17T14:03:39.357Z,32.37
2023-06-17T14:06:06.686Z,32.62
2023-06-17T14:08:33.310Z,32.74
2023-06-17T14:10:59.842Z,32.01
2023-06-17T14:13:26.269Z,31.23
2023-06-17T14:15:52.775Z,31.22
2023-06-17T14:18:19.280Z,31.78
2023-06-17T14:20:45.774Z,31.44
2023-06-17T14:23:12.385Z,30.70
2023-06-17T14:25:38.867Z,30.73
2023-06-17T14:28:05.468Z,31.21
2023-06-17T14:30:31.965Z,31.63
2023-06-17T14:32:58.660Z,31.43
2023-06-17T14:35:25.125Z,30.93
2023-06-17T14:37:51.601Z,31.43
2023-06-17T14:40:18.407Z,31.71
2023-06-17T14:42:45.961Z,32.05
2023-06-17T14:45:13.811Z,32.52
2023-06-17T14:47:40.927Z,32.73
2023-06-17T14:50:09.558Z,32.72
2023-06-17T14:52:36.040Z,33.17
2023-06-17T14:55:02.479Z,33.10
2023-06-17T14:57:29.412Z,32.82
2023-06-17T14:59:56.898Z,31.94
2023-06-17T15:02:43.310Z,31.29
2023-06-17T15:05:09.969Z,31.30
2023-06-17T15:07:36.407Z,31.63
2023-06-17T15:10:04.260Z,31.80
2023-06-17T15:12:30.922Z,31.98
2023-06-17T15:14:57.466Z,32.17
2023-06-17T15:17:23.904Z,32.16
2023-06-17T15:19:50.357Z,32.01
2023-06-17T15:22:16.851Z,32.18
2023-06-17T15:24:43.330Z,32.12
2023-06-17T15:27:09.829Z,32.21
2023-06-17T15:29:36.325Z,32.20
2023-06-17T15:32:02.918Z,32.36
2023-06-17T15:34:29.405Z,32.18
2023-06-17T15:36:55.862Z,32.16
2023-06-17T15:39:25.440Z,32.14
2023-06-17T15:41:53.097Z,31.88
2023-06-17T15:44:20.528Z,31.84
2023-06-17T15:46:47.045Z,31.79
2023-06-17T15:49:13.691Z,31.64
2023-06-17T15:51:40.331Z,31.67
2023-06-17T15:54:06.977Z,31.50
2023-06-17T15:56:35.725Z,31.34
2023-06-17T15:59:02.475Z,31.20
2023-06-17T16:01:29.379Z,31.11
2023-06-17T16:03:57.654Z,30.95
2023-06-17T16:06:24.136Z,30.62
2023-06-17T16:08:52.133Z,30.72
2023-06-17T16:11:19.524Z,30.49
2023-06-17T16:13:46.152Z,30.47
2023-06-17T16:16:12.650Z,30.44
2023-06-17T16:18:39.616Z,30.30
2023-06-17T16:21:06.075Z,30.21
2023-06-17T16:23:32.565Z,30.13
2023-06-17T16:25:59.997Z,30.02
2023-06-17T16:28:26.446Z,29.97
2023-06-17T16:30:52.922Z,29.78
2023-06-17T16:33:19.439Z,29.60
2023-06-17T16:35:45.893Z,29.52
2023-06-17T16:38:12.383Z,29.30
2023-06-17T16:40:38.832Z,29.16
2023-06-17T16:43:05.384Z,29.26
2023-06-17T16:45:31.881Z,29.34
2023-06-17T16:47:58.476Z,29.32
2023-06-17T16:50:25.089Z,29.20
2023-06-17T16:52:51.706Z,29.09
2023-06-17T16:55:18.161Z,28.87
2023-06-17T16:57:44.620Z,28.69
2023-06-17T17:00:12.463Z,28.71
2023-06-17T17:02:39.115Z,28.40
2023-06-17T17:05:06.079Z,28.24
2023-06-17T17:07:32.547Z,27.66
2023-06-17T17:09:59.109Z,27.58
2023-06-17T17:12:25.615Z,27.58
2023-06-17T17:14:52.370Z,27.35
2023-06-17T17:17:18.907Z,27.32
2023-06-17T17:19:45.609Z,27.28
2023-06-17T17:22:12.111Z,27.09
2023-06-17T17:24:39.017Z,26.97
2023-06-17T17:27:07.729Z,26.89
2023-06-17T17:29:35.199Z,26.67
2023-06-17T17:32:01.725Z,26.34
2023-06-17T17:34:28.227Z,26.15
2023-06-17T17:36:54.691Z,26.08
2023-06-17T17:39:21.270Z,26.06
2023-06-17T17:41:47.758Z,25.86
2023-06-17T17:44:14.285Z,25.89
2023-06-17T17:46:41.643Z,25.73
2023-06-17T17:49:09.572Z,25.60
2023-06-17T17:51:36.177Z,25.43
2023-06-17T17:54:02.630Z,25.40
2023-06-17T17:56:29.169Z,25.27
2023-06-17T17:58:55.708Z,25.15
2023-06-17T18:01:22.230Z,25.01
2023-06-17T18:03:48.736Z,25.10
2023-06-17T18:06:15.440Z,24.84
2023-06-17T18:08:41.882Z,24.99
2023-06-17T18:11:08.416Z,24.96
2023-06-17T18:13:34.870Z,24.88
2023-06-17T18:16:01.348Z,24.73
2023-06-17T18:18:28.033Z,24.63
2023-06-17T18:20:54.524Z,24.69
2023-06-17T18:23:21.219Z,24.52
2023-06-17T18:25:47.693Z,24.45
2023-06-17T18:28:14.357Z,24.42
2023-06-17T18:30:41.132Z,24.42
2023-06-17T18:33:07.682Z,24.27
2023-06-17T18:35:34.252Z,24.22
2023-06-17T18:38:00.741Z,24.13
2023-06-17T18:40:27.244Z,24.02
2023-06-17T18:42:53.740Z,23.94
2023-06-17T18:45:20.217Z,23.81
2023-06-17T18:47:47.437Z,23.76
2023-06-17T18:50:13.992Z,23.69
2023-06-17T18:52:41.703Z,23.59
2023-06-17T18:55:08.933Z,23.50
2023-06-17T18:57:35.636Z,23.44
2023-06-17T19:00:02.102Z,23.32
2023-06-17T19:02:29.757Z,23.20
2023-06-17T19:04:56.836Z,23.19
2023-06-17T19:07:23.309Z,23.09
2023-06-17T19:09:51.159Z,23.03
2023-06-17T19:12:17.703Z,22.92
2023-06-17T19:14:44.212Z,22.80
2023-06-17T19:17:10.832Z,22.73
2023-06-17T19:19:37.287Z,22.64
2023-06-17T19:22:03.936Z,22.58
2023-06-17T19:24:30.517Z,22.48
2023-06-17T19:26:57.062Z,22.42
2023-06-17T19:29:23.504Z,22.38
2023-06-17T19:31:49.938Z,22.32
2023-06-17T19:34:17.326Z,22.26
2023-06-17T19:36:43.770Z,22.16
2023-06-17T19:39:10.386Z,22.00
2023-06-17T19:41:36.886Z,21.98
2023-06-17T19:44:05.958Z,21.89
2023-06-17T19:46:32.512Z,21.74
2023-06-17T19:48:58.997Z,21.71
2023-06-17T19:51:25.493Z,21.68
2023-06-17T19:53:51.975Z,21.68
2023-06-17T19:56:19.486Z,21.61
2023-06-17T19:58:46.244Z,21.50
2023-06-17T20:01:12.769Z,21.41
2023-06-17T20:03:39.587Z,21.30
2023-06-17T20:06:06.094Z,21.33
2023-06-17T20:08:33.025Z,21.29
2023-06-17T20:10:59.544Z,21.16
2023-06-17T20:13:25.993Z,21.04
2023-06-17T20:15:52.794Z,20.95
2023-06-17T20:18:19.330Z,20.85
2023-06-17T20:20:45.929Z,20.84
2023-06-17T20:23:12.973Z,20.76
2023-06-17T20:25:39.473Z,20.76
2023-06-17T20:28:06.161Z,20.68
2023-06-17T20:30:32.638Z,20.67
2023-06-17T20:32:59.111Z,20.60
2023-06-17T20:35:25.679Z,20.41
2023-06-17T20:37:52.961Z,20.38
2023-06-17T20:40:19.595Z,20.32
2023-06-17T20:42:46.263Z,20.28
2023-06-17T20:45:12.694Z,20.19
2023-06-17T20:47:39.235Z,20.05
2023-06-17T20:50:06.296Z,20.07
2023-06-17T20:52:32.776Z,20.03
2023-06-17T20:54:59.257Z,19.90
2023-06-17T20:57:25.785Z,19.88
2023-06-17T20:59:53.791Z,19.89
2023-06-17T21:02:20.685Z,19.88
2023-06-17T21:04:47.372Z,19.88
2023-06-17T21:07:13.882Z,19.81
2023-06-17T21:09:40.877Z,19.72
2023-06-17T21:12:07.653Z,19.63
2023-06-17T21:14:34.125Z,19.58
2023-06-17T21:17:00.880Z,19.58
2023-06-17T21:19:29.847Z,19.46
2023-06-17T21:21:57.973Z,19.45
2023-06-17T21:24:24.557Z,19.35
2023-06-17T21:26:51.018Z,19.29
2023-06-17T21:29:17.600Z,19.25
2023-06-17T21:31:44.203Z,19.20
2023-06-17T21:34:10.686Z,19.15
2023-06-17T21:36:37.276Z,19.05
2023-06-17T21:39:03.929Z,18.99
2023-06-17T21:41:30.473Z,18.97
2023-06-17T21:43:57.020Z,18.98
2023-06-17T21:46:29.616Z,18.99
2023-06-17T21:48:56.441Z,18.98
2023-06-17T21:51:23.386Z,18.88
2023-06-17T21:53:49.858Z,18.81
2023-06-17T21:56:16.428Z,18.73
2023-06-17T21:58:42.886Z,18.66
2023-06-17T22:01:09.341Z,18.63
2023-06-17T22:03:35.967Z,18.61
2023-06-17T22:06:03.466Z,18.53
2023-06-17T22:08:41.780Z,18.51
2023-06-17T22:11:16.091Z,18.48
2023-06-17T22:13:42.630Z,18.47
2023-06-17T22:16:09.427Z,18.47
2023-06-17T22:18:42.284Z,18.56
2023-06-17T22:21:08.783Z,18.46
2023-06-17T22:26:49.831Z,18.33
2023-06-17T22:29:22.405Z,18.25
2023-06-17T22:31:49.113Z,18.22
2023-06-17T22:34:15.593Z,18.24
2023-06-17T22:36:42.080Z,18.20
2023-06-17T22:39:09.577Z,18.19
2023-06-17T22:41:36.721Z,18.18
2023-06-17T22:44:03.589Z,18.09
2023-06-17T22:50:24.116Z,18.04
2023-06-17T22:53:23.024Z,18.03
2023-06-17T22:56:31.832Z,17.90
2023-06-17T22:59:13.198Z,17.80
2023-06-17T23:01:55.915Z,17.75
2023-06-17T23:04:39.381Z,17.79
2023-06-17T23:07:19.326Z,17.75
2023-06-17T23:09:50.194Z,17.66
2023-06-17T23:12:22.697Z,17.59
2023-06-17T23:41:30.707Z,17.37
2023-06-17T23:43:57.139Z,17.32
2023-06-17T23:46:27.747Z,17.29
2023-06-17T23:48:54.822Z,17.20
2023-06-17T23:51:21.729Z,17.22
2023-06-17T23:53:48.506Z,17.18
2023-06-17T23:56:15.028Z,17.13
2023-06-17T23:58:41.488Z,17.10
